sensor_id;sensor_type;location;lat;lon;timestamp;P1;durP1;ratioP1;P2;durP2;ratioP2
59856;SDS011;45733;52.668;6.860;2023-08-21T00:01:18;2.20;;;2.10;;
59856;SDS011;45733;52.668;6.860;2023-08-21T00:03:43;2.38;;;2.28;;
59856;SDS011;45733;52.668;6.860;2023-08-21T00:06:09;2.20;;;2.10;;
59856;SDS011;45733;52.668;6.860;2023-08-21T00:08:35;2.30;;;2.20;;
59856;SDS011;45733;52.668;6.860;2023-08-21T00:11:01;2.30;;;2.20;;
59856;SDS011;45733;52.668;6.860;2023-08-21T00:13:27;2.35;;;2.25;;
59856;SDS011;45733;52.668;6.860;2023-08-21T00:15:52;2.30;;;2.20;;
59856;SDS011;45733;52.668;6.860;2023-08-21T00:18:20;2.40;;;2.30;;
59856;SDS011;45733;52.668;6.860;2023-08-21T00:20:46;2.42;;;2.33;;
59856;SDS011;45733;52.668;6.860;2023-08-21T00:23:12;2.45;;;2.35;;
59856;SDS011;45733;52.668;6.860;2023-08-21T00:25:37;2.40;;;2.30;;
59856;SDS011;45733;52.668;6.860;2023-08-21T00:28:03;2.55;;;2.45;;
59856;SDS011;45733;52.668;6.860;2023-08-21T00:30:29;2.58;;;2.47;;
59856;SDS011;45733;52.668;6.860;2023-08-21T00:32:55;2.60;;;2.50;;
59856;SDS011;45733;52.668;6.860;2023-08-21T00:35:20;2.72;;;2.58;;
59856;SDS011;45733;52.668;6.860;2023-08-21T00:37:46;2.60;;;2.50;;
59856;SDS011;45733;52.668;6.860;2023-08-21T00:40:12;2.55;;;2.45;;
59856;SDS011;45733;52.668;6.860;2023-08-21T00:42:38;2.80;;;2.60;;
59856;SDS011;45733;52.668;6.860;2023-08-21T00:45:04;2.80;;;2.60;;
59856;SDS011;45733;52.668;6.860;2023-08-21T00:47:33;2.80;;;2.60;;
59856;SDS011;45733;52.668;6.860;2023-08-21T00:49:59;2.80;;;2.60;;
59856;SDS011;45733;52.668;6.860;2023-08-21T00:52:25;2.70;;;2.55;;
59856;SDS011;45733;52.668;6.860;2023-08-21T00:54:51;2.55;;;2.45;;
59856;SDS011;45733;52.668;6.860;2023-08-21T00:57:17;2.60;;;2.50;;
59856;SDS011;45733;52.668;6.860;2023-08-21T00:59:43;2.40;;;2.30;;
59856;SDS011;45733;52.668;6.860;2023-08-21T01:02:09;2.10;;;2.00;;
59856;SDS011;45733;52.668;6.860;2023-08-21T01:04:35;2.08;;;1.98;;
59856;SDS011;45733;52.668;6.860;2023-08-21T01:07:00;2.00;;;1.90;;
59856;SDS011;45733;52.668;6.860;2023-08-21T01:09:39;2.38;;;2.28;;
59856;SDS011;45733;52.668;6.860;2023-08-21T01:15:03;2.15;;;2.05;;
59856;SDS011;45733;52.668;6.860;2023-08-21T01:17:31;2.17;;;2.08;;
59856;SDS011;45733;52.668;6.860;2023-08-21T01:20:00;2.22;;;2.13;;
59856;SDS011;45733;52.668;6.860;2023-08-21T01:22:29;2.33;;;2.22;;
59856;SDS011;45733;52.668;6.860;2023-08-21T01:25:04;2.25;;;2.15;;
59856;SDS011;45733;52.668;6.860;2023-08-21T01:27:33;2.15;;;2.05;;
59856;SDS011;45733;52.668;6.860;2023-08-21T01:30:00;2.08;;;1.98;;
59856;SDS011;45733;52.668;6.860;2023-08-21T01:35:24;1.95;;;1.85;;
59856;SDS011;45733;52.668;6.860;2023-08-21T01:37:51;1.88;;;1.77;;
59856;SDS011;45733;52.668;6.860;2023-08-21T01:40:24;1.98;;;1.88;;
59856;SDS011;45733;52.668;6.860;2023-08-21T01:42:50;1.88;;;1.77;;
59856;SDS011;45733;52.668;6.860;2023-08-21T01:45:18;1.88;;;1.77;;
59856;SDS011;45733;52.668;6.860;2023-08-21T01:47:47;1.95;;;1.85;;
59856;SDS011;45733;52.668;6.860;2023-08-21T01:50:13;1.80;;;1.70;;
59856;SDS011;45733;52.668;6.860;2023-08-21T01:52:38;1.90;;;1.80;;
59856;SDS011;45733;52.668;6.860;2023-08-21T01:55:04;2.00;;;1.90;;
59856;SDS011;45733;52.668;6.860;2023-08-21T01:57:33;1.80;;;1.70;;
59856;SDS011;45733;52.668;6.860;2023-08-21T01:59:58;1.90;;;1.80;;
59856;SDS011;45733;52.668;6.860;2023-08-21T02:02:24;1.88;;;1.77;;
59856;SDS011;45733;52.668;6.860;2023-08-21T02:04:50;1.83;;;1.73;;
59856;SDS011;45733;52.668;6.860;2023-08-21T02:07:15;1.80;;;1.70;;
59856;SDS011;45733;52.668;6.860;2023-08-21T02:09:41;1.85;;;1.75;;
59856;SDS011;45733;52.668;6.860;2023-08-21T02:12:07;1.90;;;1.80;;
59856;SDS011;45733;52.668;6.860;2023-08-21T02:14:32;1.90;;;1.80;;
59856;SDS011;45733;52.668;6.860;2023-08-21T02:16:58;1.60;;;1.50;;
59856;SDS011;45733;52.668;6.860;2023-08-21T02:19:27;1.58;;;1.48;;
59856;SDS011;45733;52.668;6.860;2023-08-21T02:21:52;1.50;;;1.40;;
59856;SDS011;45733;52.668;6.860;2023-08-21T02:24:18;1.55;;;1.45;;
59856;SDS011;45733;52.668;6.860;2023-08-21T02:26:44;0.70;;;0.70;;
59856;SDS011;45733;52.668;6.860;2023-08-21T02:29:11;0.60;;;0.60;;
59856;SDS011;45733;52.668;6.860;2023-08-21T02:31:36;0.55;;;0.55;;
59856;SDS011;45733;52.668;6.860;2023-08-21T02:34:02;0.60;;;0.60;;
59856;SDS011;45733;52.668;6.860;2023-08-21T02:36:27;0.60;;;0.60;;
59856;SDS011;45733;52.668;6.860;2023-08-21T02:38:54;0.60;;;0.60;;
59856;SDS011;45733;52.668;6.860;2023-08-21T02:41:20;0.60;;;0.60;;
59856;SDS011;45733;52.668;6.860;2023-08-21T02:43:46;0.70;;;0.70;;
59856;SDS011;45733;52.668;6.860;2023-08-21T02:46:12;0.60;;;0.60;;
59856;SDS011;45733;52.668;6.860;2023-08-21T02:48:37;0.60;;;0.60;;
59856;SDS011;45733;52.668;6.860;2023-08-21T02:51:03;0.70;;;0.70;;
59856;SDS011;45733;52.668;6.860;2023-08-21T02:53:29;0.60;;;0.60;;
59856;SDS011;45733;52.668;6.860;2023-08-21T02:55:54;0.60;;;0.60;;
59856;SDS011;45733;52.668;6.860;2023-08-21T02:58:20;0.60;;;0.60;;
59856;SDS011;45733;52.668;6.860;2023-08-21T03:00:46;0.70;;;0.70;;
59856;SDS011;45733;52.668;6.860;2023-08-21T03:03:11;0.70;;;0.70;;
59856;SDS011;45733;52.668;6.860;2023-08-21T03:05:37;0.70;;;0.70;;
59856;SDS011;45733;52.668;6.860;2023-08-21T03:08:03;0.70;;;0.70;;
59856;SDS011;45733;52.668;6.860;2023-08-21T03:10:28;0.70;;;0.70;;
59856;SDS011;45733;52.668;6.860;2023-08-21T03:12:58;0.80;;;0.80;;
59856;SDS011;45733;52.668;6.860;2023-08-21T03:15:24;0.80;;;0.80;;
59856;SDS011;45733;52.668;6.860;2023-08-21T03:17:50;0.80;;;0.80;;
59856;SDS011;45733;52.668;6.860;2023-08-21T03:20:15;0.80;;;0.80;;
59856;SDS011;45733;52.668;6.860;2023-08-21T03:22:42;0.90;;;0.90;;
59856;SDS011;45733;52.668;6.860;2023-08-21T03:25:08;0.90;;;0.90;;
59856;SDS011;45733;52.668;6.860;2023-08-21T03:27:35;0.80;;;0.80;;
59856;SDS011;45733;52.668;6.860;2023-08-21T03:30:04;0.80;;;0.80;;
59856;SDS011;45733;52.668;6.860;2023-08-21T03:32:32;0.80;;;0.80;;
59856;SDS011;45733;52.668;6.860;2023-08-21T03:34:58;0.80;;;0.80;;
59856;SDS011;45733;52.668;6.860;2023-08-21T03:37:23;0.70;;;0.70;;
59856;SDS011;45733;52.668;6.860;2023-08-21T03:39:49;0.68;;;0.68;;
59856;SDS011;45733;52.668;6.860;2023-08-21T03:42:15;0.70;;;0.70;;
59856;SDS011;45733;52.668;6.860;2023-08-21T03:44:40;0.70;;;0.70;;
59856;SDS011;45733;52.668;6.860;2023-08-21T03:47:06;0.60;;;0.60;;
59856;SDS011;45733;52.668;6.860;2023-08-21T03:49:32;0.70;;;0.70;;
59856;SDS011;45733;52.668;6.860;2023-08-21T03:51:58;0.55;;;0.55;;
59856;SDS011;45733;52.668;6.860;2023-08-21T03:54:23;0.70;;;0.70;;
59856;SDS011;45733;52.668;6.860;2023-08-21T03:56:49;0.70;;;0.70;;
59856;SDS011;45733;52.668;6.860;2023-08-21T03:59:15;0.70;;;0.70;;
59856;SDS011;45733;52.668;6.860;2023-08-21T04:01:40;0.70;;;0.70;;
59856;SDS011;45733;52.668;6.860;2023-08-21T04:04:06;0.85;;;0.85;;
59856;SDS011;45733;52.668;6.860;2023-08-21T04:06:32;0.88;;;0.88;;
59856;SDS011;45733;52.668;6.860;2023-08-21T04:08:57;0.70;;;0.70;;
59856;SDS011;45733;52.668;6.860;2023-08-21T04:11:23;0.90;;;0.90;;
59856;SDS011;45733;52.668;6.860;2023-08-21T04:13:49;0.80;;;0.80;;
59856;SDS011;45733;52.668;6.860;2023-08-21T04:16:14;0.80;;;0.80;;
59856;SDS011;45733;52.668;6.860;2023-08-21T04:18:42;0.88;;;0.88;;
59856;SDS011;45733;52.668;6.860;2023-08-21T04:21:08;0.80;;;0.80;;
59856;SDS011;45733;52.668;6.860;2023-08-21T04:23:34;0.75;;;0.75;;
59856;SDS011;45733;52.668;6.860;2023-08-21T04:26:03;0.77;;;0.77;;
59856;SDS011;45733;52.668;6.860;2023-08-21T04:28:30;0.70;;;0.70;;
59856;SDS011;45733;52.668;6.860;2023-08-21T04:30:56;0.70;;;0.70;;
59856;SDS011;45733;52.668;6.860;2023-08-21T04:33:23;0.80;;;0.80;;
59856;SDS011;45733;52.668;6.860;2023-08-21T04:35:50;0.70;;;0.70;;
59856;SDS011;45733;52.668;6.860;2023-08-21T04:38:15;0.77;;;0.77;;
59856;SDS011;45733;52.668;6.860;2023-08-21T04:40:41;0.70;;;0.70;;
59856;SDS011;45733;52.668;6.860;2023-08-21T04:43:07;0.80;;;0.80;;
59856;SDS011;45733;52.668;6.860;2023-08-21T04:45:32;0.93;;;0.93;;
59856;SDS011;45733;52.668;6.860;2023-08-21T04:47:58;0.98;;;0.98;;
59856;SDS011;45733;52.668;6.860;2023-08-21T04:50:23;0.93;;;0.93;;
59856;SDS011;45733;52.668;6.860;2023-08-21T04:52:49;1.10;;;1.10;;
59856;SDS011;45733;52.668;6.860;2023-08-21T04:55:15;1.17;;;1.17;;
59856;SDS011;45733;52.668;6.860;2023-08-21T04:57:41;1.30;;;1.30;;
59856;SDS011;45733;52.668;6.860;2023-08-21T05:00:07;1.30;;;1.30;;
59856;SDS011;45733;52.668;6.860;2023-08-21T05:02:34;1.25;;;1.25;;
59856;SDS011;45733;52.668;6.860;2023-08-21T05:05:00;1.40;;;1.35;;
59856;SDS011;45733;52.668;6.860;2023-08-21T05:07:25;1.40;;;1.35;;
59856;SDS011;45733;52.668;6.860;2023-08-21T05:09:52;1.63;;;1.52;;
59856;SDS011;45733;52.668;6.860;2023-08-21T05:12:17;1.48;;;1.40;;
59856;SDS011;45733;52.668;6.860;2023-08-21T05:14:43;1.27;;;1.27;;
59856;SDS011;45733;52.668;6.860;2023-08-21T05:17:09;0.95;;;0.95;;
59856;SDS011;45733;52.668;6.860;2023-08-21T05:19:34;0.75;;;0.75;;
59856;SDS011;45733;52.668;6.860;2023-08-21T05:22:00;0.60;;;0.60;;
59856;SDS011;45733;52.668;6.860;2023-08-21T05:24:25;0.60;;;0.60;;
59856;SDS011;45733;52.668;6.860;2023-08-21T05:26:51;0.50;;;0.50;;
59856;SDS011;45733;52.668;6.860;2023-08-21T05:29:17;0.60;;;0.60;;
59856;SDS011;45733;52.668;6.860;2023-08-21T05:31:42;0.80;;;0.80;;
59856;SDS011;45733;52.668;6.860;2023-08-21T05:34:08;1.02;;;1.02;;
59856;SDS011;45733;52.668;6.860;2023-08-21T05:36:34;1.10;;;1.10;;
59856;SDS011;45733;52.668;6.860;2023-08-21T05:39:01;1.10;;;1.10;;
59856;SDS011;45733;52.668;6.860;2023-08-21T05:41:30;1.35;;;1.33;;
59856;SDS011;45733;52.668;6.860;2023-08-21T05:43:57;1.20;;;1.20;;
59856;SDS011;45733;52.668;6.860;2023-08-21T05:46:22;1.17;;;1.17;;
59856;SDS011;45733;52.668;6.860;2023-08-21T05:48:48;1.10;;;1.10;;
59856;SDS011;45733;52.668;6.860;2023-08-21T05:51:13;1.17;;;1.17;;
59856;SDS011;45733;52.668;6.860;2023-08-21T05:53:39;1.17;;;1.17;;
59856;SDS011;45733;52.668;6.860;2023-08-21T05:56:05;1.23;;;1.23;;
59856;SDS011;45733;52.668;6.860;2023-08-21T05:58:30;1.20;;;1.20;;
59856;SDS011;45733;52.668;6.860;2023-08-21T06:00:57;1.10;;;1.10;;
59856;SDS011;45733;52.668;6.860;2023-08-21T06:03:23;1.25;;;1.25;;
59856;SDS011;45733;52.668;6.860;2023-08-21T06:05:49;1.23;;;1.23;;
59856;SDS011;45733;52.668;6.860;2023-08-21T06:08:15;1.48;;;1.40;;
59856;SDS011;45733;52.668;6.860;2023-08-21T06:10:40;1.23;;;1.23;;
59856;SDS011;45733;52.668;6.860;2023-08-21T06:13:06;1.35;;;1.33;;
59856;SDS011;45733;52.668;6.860;2023-08-21T06:15:32;1.50;;;1.42;;
59856;SDS011;45733;52.668;6.860;2023-08-21T06:17:58;1.10;;;1.10;;
59856;SDS011;45733;52.668;6.860;2023-08-21T06:20:24;1.20;;;1.20;;
59856;SDS011;45733;52.668;6.860;2023-08-21T06:22:50;1.20;;;1.20;;
59856;SDS011;45733;52.668;6.860;2023-08-21T06:25:15;1.30;;;1.30;;
59856;SDS011;45733;52.668;6.860;2023-08-21T06:27:44;1.20;;;1.20;;
59856;SDS011;45733;52.668;6.860;2023-08-21T06:30:10;1.48;;;1.40;;
59856;SDS011;45733;52.668;6.860;2023-08-21T06:32:36;1.20;;;1.20;;
59856;SDS011;45733;52.668;6.860;2023-08-21T06:35:02;1.17;;;1.17;;
59856;SDS011;45733;52.668;6.860;2023-08-21T06:37:27;1.33;;;1.33;;
59856;SDS011;45733;52.668;6.860;2023-08-21T06:39:53;1.17;;;1.17;;
59856;SDS011;45733;52.668;6.860;2023-08-21T06:42:22;1.13;;;1.13;;
59856;SDS011;45733;52.668;6.860;2023-08-21T06:44:47;1.00;;;1.00;;
59856;SDS011;45733;52.668;6.860;2023-08-21T06:47:13;1.13;;;1.13;;
59856;SDS011;45733;52.668;6.860;2023-08-21T06:49:39;0.90;;;0.90;;
59856;SDS011;45733;52.668;6.860;2023-08-21T06:52:05;0.82;;;0.82;;
59856;SDS011;45733;52.668;6.860;2023-08-21T06:54:30;0.80;;;0.80;;
59856;SDS011;45733;52.668;6.860;2023-08-21T06:56:56;0.80;;;0.80;;
59856;SDS011;45733;52.668;6.860;2023-08-21T06:59:22;0.80;;;0.80;;
59856;SDS011;45733;52.668;6.860;2023-08-21T07:01:48;0.70;;;0.70;;
59856;SDS011;45733;52.668;6.860;2023-08-21T07:04:14;0.80;;;0.80;;
59856;SDS011;45733;52.668;6.860;2023-08-21T07:06:39;0.82;;;0.82;;
59856;SDS011;45733;52.668;6.860;2023-08-21T07:09:05;0.80;;;0.80;;
59856;SDS011;45733;52.668;6.860;2023-08-21T07:11:30;0.80;;;0.80;;
59856;SDS011;45733;52.668;6.860;2023-08-21T07:13:56;0.80;;;0.80;;
59856;SDS011;45733;52.668;6.860;2023-08-21T07:16:22;0.90;;;0.90;;
59856;SDS011;45733;52.668;6.860;2023-08-21T07:18:48;1.00;;;1.00;;
59856;SDS011;45733;52.668;6.860;2023-08-21T07:21:13;0.93;;;0.93;;
59856;SDS011;45733;52.668;6.860;2023-08-21T07:23:39;1.00;;;1.00;;
59856;SDS011;45733;52.668;6.860;2023-08-21T07:26:05;0.90;;;0.90;;
59856;SDS011;45733;52.668;6.860;2023-08-21T07:28:32;0.80;;;0.80;;
59856;SDS011;45733;52.668;6.860;2023-08-21T07:30:58;0.70;;;0.70;;
59856;SDS011;45733;52.668;6.860;2023-08-21T07:33:24;0.90;;;0.90;;
59856;SDS011;45733;52.668;6.860;2023-08-21T07:36:02;0.80;;;0.80;;
59856;SDS011;45733;52.668;6.860;2023-08-21T07:38:28;0.88;;;0.88;;
59856;SDS011;45733;52.668;6.860;2023-08-21T07:41:10;0.98;;;0.98;;
59856;SDS011;45733;52.668;6.860;2023-08-21T07:43:37;1.17;;;1.17;;
59856;SDS011;45733;52.668;6.860;2023-08-21T07:46:08;1.20;;;1.20;;
59856;SDS011;45733;52.668;6.860;2023-08-21T07:48:37;0.35;;;0.35;;
59856;SDS011;45733;52.668;6.860;2023-08-21T07:51:03;1.02;;;1.02;;
59856;SDS011;45733;52.668;6.860;2023-08-21T07:53:29;0.68;;;0.68;;
59856;SDS011;45733;52.668;6.860;2023-08-21T07:55:56;0.98;;;0.98;;
59856;SDS011;45733;52.668;6.860;2023-08-21T07:58:23;0.30;;;0.30;;
59856;SDS011;45733;52.668;6.860;2023-08-21T08:00:48;0.90;;;0.90;;
59856;SDS011;45733;52.668;6.860;2023-08-21T08:03:14;0.90;;;0.90;;
59856;SDS011;45733;52.668;6.860;2023-08-21T08:05:40;0.30;;;0.30;;
59856;SDS011;45733;52.668;6.860;2023-08-21T08:08:10;0.60;;;0.60;;
59856;SDS011;45733;52.668;6.860;2023-08-21T08:10:39;0.50;;;0.50;;
59856;SDS011;45733;52.668;6.860;2023-08-21T08:13:06;0.47;;;0.47;;
59856;SDS011;45733;52.668;6.860;2023-08-21T08:15:32;0.47;;;0.47;;
59856;SDS011;45733;52.668;6.860;2023-08-21T08:17:59;0.52;;;0.52;;
59856;SDS011;45733;52.668;6.860;2023-08-21T08:20:26;0.30;;;0.30;;
59856;SDS011;45733;52.668;6.860;2023-08-21T08:22:51;0.30;;;0.30;;
59856;SDS011;45733;52.668;6.860;2023-08-21T08:25:17;0.30;;;0.30;;
59856;SDS011;45733;52.668;6.860;2023-08-21T08:27:43;0.30;;;0.30;;
59856;SDS011;45733;52.668;6.860;2023-08-21T08:30:09;0.30;;;0.30;;
59856;SDS011;45733;52.668;6.860;2023-08-21T08:32:35;0.30;;;0.30;;
59856;SDS011;45733;52.668;6.860;2023-08-21T08:35:01;0.40;;;0.40;;
59856;SDS011;45733;52.668;6.860;2023-08-21T08:37:27;0.30;;;0.30;;
59856;SDS011;45733;52.668;6.860;2023-08-21T08:39:52;0.35;;;0.35;;
59856;SDS011;45733;52.668;6.860;2023-08-21T08:42:18;0.30;;;0.30;;
59856;SDS011;45733;52.668;6.860;2023-08-21T08:44:44;0.30;;;0.30;;
59856;SDS011;45733;52.668;6.860;2023-08-21T08:47:11;0.60;;;0.60;;
59856;SDS011;45733;52.668;6.860;2023-08-21T08:49:38;0.30;;;0.30;;
59856;SDS011;45733;52.668;6.860;2023-08-21T08:52:04;0.30;;;0.30;;
59856;SDS011;45733;52.668;6.860;2023-08-21T08:54:30;0.40;;;0.40;;
59856;SDS011;45733;52.668;6.860;2023-08-21T08:56:56;0.30;;;0.30;;
59856;SDS011;45733;52.668;6.860;2023-08-21T08:59:23;0.30;;;0.30;;
59856;SDS011;45733;52.668;6.860;2023-08-21T09:01:49;0.30;;;0.30;;
59856;SDS011;45733;52.668;6.860;2023-08-21T09:04:14;0.38;;;0.38;;
59856;SDS011;45733;52.668;6.860;2023-08-21T09:06:40;0.30;;;0.30;;
59856;SDS011;45733;52.668;6.860;2023-08-21T09:09:07;0.35;;;0.35;;
59856;SDS011;45733;52.668;6.860;2023-08-21T09:11:33;0.30;;;0.30;;
59856;SDS011;45733;52.668;6.860;2023-08-21T09:13:59;0.30;;;0.30;;
59856;SDS011;45733;52.668;6.860;2023-08-21T09:16:25;0.35;;;0.35;;
59856;SDS011;45733;52.668;6.860;2023-08-21T09:18:52;0.30;;;0.30;;
59856;SDS011;45733;52.668;6.860;2023-08-21T09:21:19;0.30;;;0.30;;
59856;SDS011;45733;52.668;6.860;2023-08-21T09:23:47;0.30;;;0.30;;
59856;SDS011;45733;52.668;6.860;2023-08-21T09:26:22;0.30;;;0.30;;
59856;SDS011;45733;52.668;6.860;2023-08-21T09:28:49;0.40;;;0.40;;
59856;SDS011;45733;52.668;6.860;2023-08-21T09:31:16;0.30;;;0.30;;
59856;SDS011;45733;52.668;6.860;2023-08-21T09:33:54;0.30;;;0.30;;
59856;SDS011;45733;52.668;6.860;2023-08-21T09:36:24;0.30;;;0.30;;
59856;SDS011;45733;52.668;6.860;2023-08-21T09:38:50;0.30;;;0.30;;
59856;SDS011;45733;52.668;6.860;2023-08-21T09:41:20;0.30;;;0.30;;
59856;SDS011;45733;52.668;6.860;2023-08-21T09:43:47;0.30;;;0.30;;
59856;SDS011;45733;52.668;6.860;2023-08-21T09:46:17;0.30;;;0.30;;
59856;SDS011;45733;52.668;6.860;2023-08-21T09:48:54;0.30;;;0.30;;
59856;SDS011;45733;52.668;6.860;2023-08-21T09:51:20;0.30;;;0.30;;
59856;SDS011;45733;52.668;6.860;2023-08-21T09:53:47;0.30;;;0.30;;
59856;SDS011;45733;52.668;6.860;2023-08-21T09:56:14;0.30;;;0.30;;
59856;SDS011;45733;52.668;6.860;2023-08-21T09:58:40;0.30;;;0.30;;
59856;SDS011;45733;52.668;6.860;2023-08-21T10:01:06;0.30;;;0.30;;
59856;SDS011;45733;52.668;6.860;2023-08-21T10:03:38;0.30;;;0.30;;
59856;SDS011;45733;52.668;6.860;2023-08-21T10:06:04;0.30;;;0.30;;
59856;SDS011;45733;52.668;6.860;2023-08-21T10:08:31;0.30;;;0.30;;
59856;SDS011;45733;52.668;6.860;2023-08-21T10:11:04;0.30;;;0.30;;
59856;SDS011;45733;52.668;6.860;2023-08-21T10:13:32;0.30;;;0.30;;
59856;SDS011;45733;52.668;6.860;2023-08-21T10:16:00;0.30;;;0.30;;
59856;SDS011;45733;52.668;6.860;2023-08-21T10:18:30;0.30;;;0.30;;
59856;SDS011;45733;52.668;6.860;2023-08-21T10:23:37;0.40;;;0.40;;
59856;SDS011;45733;52.668;6.860;2023-08-21T10:26:07;0.30;;;0.30;;
59856;SDS011;45733;52.668;6.860;2023-08-21T10:31:39;0.30;;;0.30;;
59856;SDS011;45733;52.668;6.860;2023-08-21T10:47:34;0.30;;;0.30;;
59856;SDS011;45733;52.668;6.860;2023-08-21T10:50:05;0.30;;;0.30;;
59856;SDS011;45733;52.668;6.860;2023-08-21T10:55:09;0.30;;;0.30;;
59856;SDS011;45733;52.668;6.860;2023-08-21T10:57:35;0.30;;;0.30;;
59856;SDS011;45733;52.668;6.860;2023-08-21T11:00:05;0.30;;;0.30;;
59856;SDS011;45733;52.668;6.860;2023-08-21T11:02:34;0.30;;;0.30;;
59856;SDS011;45733;52.668;6.860;2023-08-21T11:05:01;0.30;;;0.30;;
59856;SDS011;45733;52.668;6.860;2023-08-21T11:07:28;0.30;;;0.30;;
59856;SDS011;45733;52.668;6.860;2023-08-21T11:09:54;0.30;;;0.30;;
59856;SDS011;45733;52.668;6.860;2023-08-21T11:12:21;0.22;;;0.22;;
59856;SDS011;45733;52.668;6.860;2023-08-21T11:14:48;0.30;;;0.30;;
59856;SDS011;45733;52.668;6.860;2023-08-21T11:17:14;0.30;;;0.30;;
59856;SDS011;45733;52.668;6.860;2023-08-21T11:19:41;0.30;;;0.30;;
59856;SDS011;45733;52.668;6.860;2023-08-21T11:22:07;0.30;;;0.30;;
59856;SDS011;45733;52.668;6.860;2023-08-21T11:27:02;0.35;;;0.35;;
59856;SDS011;45733;52.668;6.860;2023-08-21T11:29:32;0.30;;;0.30;;
59856;SDS011;45733;52.668;6.860;2023-08-21T11:32:15;0.30;;;0.30;;
59856;SDS011;45733;52.668;6.860;2023-08-21T11:34:54;0.30;;;0.30;;
59856;SDS011;45733;52.668;6.860;2023-08-21T11:37:22;0.30;;;0.30;;
59856;SDS011;45733;52.668;6.860;2023-08-21T11:39:52;0.30;;;0.30;;
59856;SDS011;45733;52.668;6.860;2023-08-21T11:42:18;0.30;;;0.30;;
59856;SDS011;45733;52.668;6.860;2023-08-21T11:44:52;0.30;;;0.30;;
59856;SDS011;45733;52.668;6.860;2023-08-21T11:47:19;0.30;;;0.30;;
59856;SDS011;45733;52.668;6.860;2023-08-21T11:49:47;0.30;;;0.30;;
59856;SDS011;45733;52.668;6.860;2023-08-21T11:52:17;0.30;;;0.30;;
59856;SDS011;45733;52.668;6.860;2023-08-21T11:54:47;0.30;;;0.30;;
59856;SDS011;45733;52.668;6.860;2023-08-21T11:57:15;0.30;;;0.30;;
59856;SDS011;45733;52.668;6.860;2023-08-21T11:59:40;0.30;;;0.30;;
59856;SDS011;45733;52.668;6.860;2023-08-21T12:05:05;0.20;;;0.20;;
59856;SDS011;45733;52.668;6.860;2023-08-21T12:07:31;0.30;;;0.30;;
59856;SDS011;45733;52.668;6.860;2023-08-21T12:09:57;0.30;;;0.30;;
59856;SDS011;45733;52.668;6.860;2023-08-21T12:12:23;0.30;;;0.30;;
59856;SDS011;45733;52.668;6.860;2023-08-21T12:14:49;0.20;;;0.20;;
59856;SDS011;45733;52.668;6.860;2023-08-21T12:17:15;0.30;;;0.30;;
59856;SDS011;45733;52.668;6.860;2023-08-21T12:19:41;0.30;;;0.30;;
59856;SDS011;45733;52.668;6.860;2023-08-21T12:22:08;0.20;;;0.20;;
59856;SDS011;45733;52.668;6.860;2023-08-21T12:24:34;0.25;;;0.25;;
59856;SDS011;45733;52.668;6.860;2023-08-21T12:26:59;0.30;;;0.30;;
59856;SDS011;45733;52.668;6.860;2023-08-21T12:29:25;0.22;;;0.22;;
59856;SDS011;45733;52.668;6.860;2023-08-21T12:31:51;0.30;;;0.30;;
59856;SDS011;45733;52.668;6.860;2023-08-21T12:34:17;0.30;;;0.30;;
59856;SDS011;45733;52.668;6.860;2023-08-21T12:36:43;0.28;;;0.28;;
59856;SDS011;45733;52.668;6.860;2023-08-21T12:39:08;0.30;;;0.30;;
59856;SDS011;45733;52.668;6.860;2023-08-21T12:41:34;0.30;;;0.30;;
59856;SDS011;45733;52.668;6.860;2023-08-21T12:44:00;0.30;;;0.30;;
59856;SDS011;45733;52.668;6.860;2023-08-21T12:46:28;0.20;;;0.20;;
59856;SDS011;45733;52.668;6.860;2023-08-21T12:48:54;0.30;;;0.30;;
59856;SDS011;45733;52.668;6.860;2023-08-21T12:51:20;0.30;;;0.30;;
59856;SDS011;45733;52.668;6.860;2023-08-21T12:53:46;0.30;;;0.30;;
59856;SDS011;45733;52.668;6.860;2023-08-21T12:56:12;0.30;;;0.30;;
59856;SDS011;45733;52.668;6.860;2023-08-21T12:58:38;0.30;;;0.30;;
59856;SDS011;45733;52.668;6.860;2023-08-21T13:01:04;0.30;;;0.30;;
59856;SDS011;45733;52.668;6.860;2023-08-21T13:03:33;0.30;;;0.30;;
59856;SDS011;45733;52.668;6.860;2023-08-21T13:06:06;0.30;;;0.30;;
59856;SDS011;45733;52.668;6.860;2023-08-21T13:08:32;0.30;;;0.30;;
59856;SDS011;45733;52.668;6.860;2023-08-21T13:10:58;0.25;;;0.25;;
59856;SDS011;45733;52.668;6.860;2023-08-21T13:13:23;0.30;;;0.30;;
59856;SDS011;45733;52.668;6.860;2023-08-21T13:15:49;0.28;;;0.28;;
59856;SDS011;45733;52.668;6.860;2023-08-21T13:18:15;0.25;;;0.25;;
59856;SDS011;45733;52.668;6.860;2023-08-21T13:20:41;0.30;;;0.30;;
59856;SDS011;45733;52.668;6.860;2023-08-21T13:23:07;0.30;;;0.30;;
59856;SDS011;45733;52.668;6.860;2023-08-21T13:25:33;0.30;;;0.30;;
59856;SDS011;45733;52.668;6.860;2023-08-21T13:28:00;0.30;;;0.30;;
59856;SDS011;45733;52.668;6.860;2023-08-21T13:30:28;0.30;;;0.30;;
59856;SDS011;45733;52.668;6.860;2023-08-21T13:32:54;0.30;;;0.30;;
59856;SDS011;45733;52.668;6.860;2023-08-21T13:35:21;0.30;;;0.30;;
59856;SDS011;45733;52.668;6.860;2023-08-21T13:37:48;0.20;;;0.20;;
59856;SDS011;45733;52.668;6.860;2023-08-21T13:40:14;0.30;;;0.30;;
59856;SDS011;45733;52.668;6.860;2023-08-21T13:42:41;0.30;;;0.30;;
59856;SDS011;45733;52.668;6.860;2023-08-21T13:45:12;0.22;;;0.22;;
59856;SDS011;45733;52.668;6.860;2023-08-21T13:47:39;0.30;;;0.30;;
59856;SDS011;45733;52.668;6.860;2023-08-21T13:50:06;0.30;;;0.30;;
59856;SDS011;45733;52.668;6.860;2023-08-21T13:52:33;0.30;;;0.30;;
59856;SDS011;45733;52.668;6.860;2023-08-21T13:54:59;0.30;;;0.30;;
59856;SDS011;45733;52.668;6.860;2023-08-21T13:57:25;0.30;;;0.30;;
59856;SDS011;45733;52.668;6.860;2023-08-21T13:59:51;0.30;;;0.30;;
59856;SDS011;45733;52.668;6.860;2023-08-21T14:02:17;0.30;;;0.30;;
59856;SDS011;45733;52.668;6.860;2023-08-21T14:04:47;0.30;;;0.30;;
59856;SDS011;45733;52.668;6.860;2023-08-21T14:07:13;0.28;;;0.28;;
59856;SDS011;45733;52.668;6.860;2023-08-21T14:09:40;0.30;;;0.30;;
59856;SDS011;45733;52.668;6.860;2023-08-21T14:12:06;0.30;;;0.30;;
59856;SDS011;45733;52.668;6.860;2023-08-21T14:14:34;0.30;;;0.30;;
59856;SDS011;45733;52.668;6.860;2023-08-21T14:17:00;0.30;;;0.30;;
59856;SDS011;45733;52.668;6.860;2023-08-21T14:19:27;0.30;;;0.30;;
59856;SDS011;45733;52.668;6.860;2023-08-21T14:21:53;0.30;;;0.30;;
59856;SDS011;45733;52.668;6.860;2023-08-21T14:24:19;0.30;;;0.30;;
59856;SDS011;45733;52.668;6.860;2023-08-21T14:26:45;0.30;;;0.30;;
59856;SDS011;45733;52.668;6.860;2023-08-21T14:29:11;0.30;;;0.30;;
59856;SDS011;45733;52.668;6.860;2023-08-21T14:31:37;0.30;;;0.30;;
59856;SDS011;45733;52.668;6.860;2023-08-21T14:34:05;0.30;;;0.30;;
59856;SDS011;45733;52.668;6.860;2023-08-21T14:36:31;0.30;;;0.30;;
59856;SDS011;45733;52.668;6.860;2023-08-21T14:38:57;0.30;;;0.30;;
59856;SDS011;45733;52.668;6.860;2023-08-21T14:41:24;0.30;;;0.30;;
59856;SDS011;45733;52.668;6.860;2023-08-21T14:43:51;0.30;;;0.30;;
59856;SDS011;45733;52.668;6.860;2023-08-21T14:46:16;0.30;;;0.30;;
59856;SDS011;45733;52.668;6.860;2023-08-21T14:48:51;0.20;;;0.20;;
59856;SDS011;45733;52.668;6.860;2023-08-21T14:51:17;0.20;;;0.20;;
59856;SDS011;45733;52.668;6.860;2023-08-21T14:53:45;0.20;;;0.20;;
59856;SDS011;45733;52.668;6.860;2023-08-21T14:56:11;0.20;;;0.20;;
59856;SDS011;45733;52.668;6.860;2023-08-21T14:58:42;0.30;;;0.30;;
59856;SDS011;45733;52.668;6.860;2023-08-21T15:01:09;0.30;;;0.30;;
59856;SDS011;45733;52.668;6.860;2023-08-21T15:03:38;0.28;;;0.28;;
59856;SDS011;45733;52.668;6.860;2023-08-21T15:06:04;0.30;;;0.30;;
59856;SDS011;45733;52.668;6.860;2023-08-21T15:08:30;0.30;;;0.30;;
59856;SDS011;45733;52.668;6.860;2023-08-21T15:11:09;0.30;;;0.30;;
59856;SDS011;45733;52.668;6.860;2023-08-21T15:13:36;0.22;;;0.22;;
59856;SDS011;45733;52.668;6.860;2023-08-21T15:16:02;0.30;;;0.30;;
59856;SDS011;45733;52.668;6.860;2023-08-21T15:18:37;0.30;;;0.30;;